Sy Budlup — HBY3891 — position and weather

sailwx.info

Track history (hours):
 
Tides and Currents Weather Stations Pressure Air Temp Water Temp Dewpoint Dewpoint Depression Visibility Wind Speed Wind Dir Waves Ship Positions

Sy Budlup

Last reported at 2015-Apr-28 14:33 UTC. Time now 2015-Apr-28 16:02 UTC.
Position N 14°36' W 061°04'.

Length 12 m.

Type: Sailing vessel. MMSI: 269432000.

Date/timePositionNaut miles runAvg speedWind from/ knotsBaromVisibWave heightAir tempDewpointWater temp
2015-Apr-28 14:33N 14°36' W 061°04'0 0.0
2015-Apr-27 17:32N 14°36' W 061°04'3 3.4
2015-Apr-27 16:33N 14°33' W 061°02'1 0.0
2015-Apr-26 16:08N 14°33' W 061°02'1 2.0
2015-Apr-26 15:33N 14°34' W 061°02'3 2.7
2015-Apr-26 14:33N 14°33' W 061°05'3 2.6
2015-Apr-26 13:30N 14°30' W 061°05'0 0.0
2015-Apr-25 19:29N 14°30' W 061°05'0 0.0
2015-Apr-25 18:29N 14°30' W 061°05'0 0.0
2015-Apr-25 17:32N 14°30' W 061°05'0 0.0
2015-Apr-25 16:32N 14°30' W 061°05'4 3.3
2015-Apr-25 15:19N 14°27' W 061°02'4 5.1
2015-Apr-25 14:33N 14°27' W 060°58'5 4.9
2015-Apr-25 13:29N 14°26' W 060°53'  
Track history (hours):
 
Tides and Currents Weather Stations Pressure Air Temp Water Temp Dewpoint Dewpoint Depression Visibility Wind Speed Wind Dir Waves Ship Positions

Sy Budlup

Last reported at 2015-Apr-28 14:33 UTC. Time now 2015-Apr-28 16:02 UTC.
Position N 14°36' W 061°04'.

Length 12 m.

Type: Sailing vessel. MMSI: 269432000.

Date/timePositionNaut miles runAvg speedWind from/ knotsBaromVisibWave heightAir tempDewpointWater temp
2015-Apr-28 14:33N 14°36' W 061°04'0 0.0
2015-Apr-27 17:32N 14°36' W 061°04'3 3.4
2015-Apr-27 16:33N 14°33' W 061°02'1 0.0
2015-Apr-26 16:08N 14°33' W 061°02'1 2.0
2015-Apr-26 15:33N 14°34' W 061°02'3 2.7
2015-Apr-26 14:33N 14°33' W 061°05'3 2.6
2015-Apr-26 13:30N 14°30' W 061°05'0 0.0
2015-Apr-25 19:29N 14°30' W 061°05'0 0.0
2015-Apr-25 18:29N 14°30' W 061°05'0 0.0
2015-Apr-25 17:32N 14°30' W 061°05'0 0.0
2015-Apr-25 16:32N 14°30' W 061°05'4 3.3
2015-Apr-25 15:19N 14°27' W 061°02'4 5.1
2015-Apr-25 14:33N 14°27' W 060°58'5 4.9
2015-Apr-25 13:29N 14°26' W 060°53'  

Dump ship's entire track history